This is the latest recevied weather packets stored in our database for station/object SQ7KHZ-10. If no packets are shown the sender has not sent any weather packets the latest 10 day(s).
| Time | Temp. | Humidity | Pressure | Rain* | Wind** | Luminosity | Snow |
|---|---|---|---|---|---|---|---|
| 1777626192 | 16.67° C | 51% | 1026 hPa | 0 mm | - | - | - |
| 1777624983 | 16.67° C | 48% | 1026 hPa | 0 mm | - | - | - |
| 1777623772 | 16.11° C | 45% | 1026 hPa | 0 mm | - | - | - |
| 1777622561 | 15.56° C | 48% | 1026 hPa | 0 mm | - | - | - |
| 1777621351 | 15° C | 50% | 1026.1 hPa | 0 mm | - | - | - |
| 1777620143 | 15° C | 56% | 1026.2 hPa | 0 mm | - | - | - |
| 1777618939 | 13.89° C | 57% | 1026.1 hPa | 0 mm | - | - | - |
| 1777617712 | 12.78° C | 60% | 1026.1 hPa | 0 mm | - | - | - |
| 1777616509 | 11.11° C | 66% | 1026.1 hPa | 0 mm | - | - | - |
| 1777615304 | 10.56° C | 67% | 1026.1 hPa | 0 mm | - | - | - |
| 1777614100 | 10° C | 70% | 1026.1 hPa | 0 mm | - | - | - |
| 1777612900 | 9.44° C | 70% | 1026.1 hPa | 0 mm | - | - | - |
| 1777611699 | 8.33° C | 73% | 1026.1 hPa | 0 mm | - | - | - |
| 1777610499 | 7.78° C | 74% | 1026 hPa | 0 mm | - | - | - |
| 1777609298 | 7.22° C | 76% | 1026 hPa | 0 mm | - | - | - |
| 1777608098 | 6.67° C | 80% | 1026 hPa | 0 mm | - | - | - |
| 1777606897 | 6.67° C | 80% | 1026 hPa | 0 mm | - | - | - |
| 1777605686 | 6.11° C | 83% | 1026.1 hPa | 0 mm | - | - | - |
| 1777604474 | 6.67° C | 81% | 1026.1 hPa | 0 mm | - | - | - |
| 1777603262 | 6.67° C | 78% | 1026.3 hPa | 0 mm | - | - | - |
| 1777602049 | 6.11° C | 82% | 1026.3 hPa | 0 mm | - | - | - |
| 1777600850 | 6.67° C | 76% | 1026.5 hPa | 0 mm | - | - | - |
| 1777599638 | 7.22° C | 73% | 1026.5 hPa | 0 mm | - | - | - |
| 1777598426 | 7.78° C | 64% | 1026.6 hPa | 0 mm | - | - | - |
| 1777597214 | 7.22° C | 70% | 1026.7 hPa | 0 mm | - | - | - |
* Rain latest hour (hover to see other rain measurements)
** Current wind speed in m/s (hover to see current wind gust speed)